sensor_id;sensor_type;location;lat;lon;timestamp;temperature;humidity
44775;DHT22;31340;51.402;0.016;2022-09-17T00:01:24;13.00;62.60
44775;DHT22;31340;51.402;0.016;2022-09-17T00:03:55;13.00;62.70
44775;DHT22;31340;51.402;0.016;2022-09-17T00:06:24;13.00;62.70
44775;DHT22;31340;51.402;0.016;2022-09-17T00:08:53;12.90;62.80
44775;DHT22;31340;51.402;0.016;2022-09-17T00:11:23;12.90;63.10
44775;DHT22;31340;51.402;0.016;2022-09-17T00:13:52;12.90;63.00
44775;DHT22;31340;51.402;0.016;2022-09-17T00:18:50;12.90;63.30
44775;DHT22;31340;51.402;0.016;2022-09-17T00:21:18;12.80;63.30
44775;DHT22;31340;51.402;0.016;2022-09-17T00:23:46;12.80;63.50
44775;DHT22;31340;51.402;0.016;2022-09-17T00:26:14;12.80;63.60
44775;DHT22;31340;51.402;0.016;2022-09-17T00:28:41;12.80;63.70
44775;DHT22;31340;51.402;0.016;2022-09-17T00:31:11;12.80;63.70
44775;DHT22;31340;51.402;0.016;2022-09-17T00:33:39;12.80;63.80
44775;DHT22;31340;51.402;0.016;2022-09-17T00:36:07;12.70;64.00
44775;DHT22;31340;51.402;0.016;2022-09-17T00:38:35;12.70;64.30
44775;DHT22;31340;51.402;0.016;2022-09-17T00:41:03;12.70;64.30
44775;DHT22;31340;51.402;0.016;2022-09-17T00:43:42;12.70;64.60
44775;DHT22;31340;51.402;0.016;2022-09-17T00:49:25;12.70;64.90
44775;DHT22;31340;51.402;0.016;2022-09-17T00:51:56;12.60;64.90
44775;DHT22;31340;51.402;0.016;2022-09-17T00:54:28;12.60;64.80
44775;DHT22;31340;51.402;0.016;2022-09-17T00:56:56;12.50;64.90
44775;DHT22;31340;51.402;0.016;2022-09-17T00:59:24;12.50;65.10
44775;DHT22;31340;51.402;0.016;2022-09-17T01:01:53;12.50;65.20
44775;DHT22;31340;51.402;0.016;2022-09-17T01:04:23;12.50;65.20
44775;DHT22;31340;51.402;0.016;2022-09-17T01:07:08;12.50;65.20
44775;DHT22;31340;51.402;0.016;2022-09-17T01:12:40;12.40;65.40
44775;DHT22;31340;51.402;0.016;2022-09-17T01:18:35;12.40;65.60
44775;DHT22;31340;51.402;0.016;2022-09-17T01:24:16;12.30;65.80
44775;DHT22;31340;51.402;0.016;2022-09-17T01:32:29;12.30;66.30
44775;DHT22;31340;51.402;0.016;2022-09-17T01:37:51;12.20;66.80
44775;DHT22;31340;51.402;0.016;2022-09-17T01:40:42;12.20;67.10
44775;DHT22;31340;51.402;0.016;2022-09-17T01:43:26;12.20;67.30
44775;DHT22;31340;51.402;0.016;2022-09-17T01:46:00;12.20;67.50
44775;DHT22;31340;51.402;0.016;2022-09-17T01:48:34;12.20;67.50
44775;DHT22;31340;51.402;0.016;2022-09-17T01:51:14;12.20;67.70
44775;DHT22;31340;51.402;0.016;2022-09-17T01:53:51;12.20;68.10
44775;DHT22;31340;51.402;0.016;2022-09-17T01:56:24;12.10;68.20
44775;DHT22;31340;51.402;0.016;2022-09-17T01:58:59;12.10;68.30
44775;DHT22;31340;51.402;0.016;2022-09-17T02:01:30;12.10;68.50
44775;DHT22;31340;51.402;0.016;2022-09-17T02:04:06;12.10;68.70
44775;DHT22;31340;51.402;0.016;2022-09-17T02:06:39;12.10;69.10
44775;DHT22;31340;51.402;0.016;2022-09-17T02:09:17;12.00;69.20
44775;DHT22;31340;51.402;0.016;2022-09-17T02:11:51;12.00;69.50
44775;DHT22;31340;51.402;0.016;2022-09-17T02:14:30;12.00;69.70
44775;DHT22;31340;51.402;0.016;2022-09-17T02:17:21;12.00;70.00
44775;DHT22;31340;51.402;0.016;2022-09-17T02:19:52;12.00;70.40
44775;DHT22;31340;51.402;0.016;2022-09-17T02:22:38;11.90;70.50
44775;DHT22;31340;51.402;0.016;2022-09-17T02:25:14;11.80;71.00
44775;DHT22;31340;51.402;0.016;2022-09-17T02:28:02;11.80;70.90
44775;DHT22;31340;51.402;0.016;2022-09-17T02:30:30;11.80;71.20
44775;DHT22;31340;51.402;0.016;2022-09-17T02:33:03;11.70;71.20
44775;DHT22;31340;51.402;0.016;2022-09-17T02:35:31;11.70;71.50
44775;DHT22;31340;51.402;0.016;2022-09-17T02:37:59;11.70;71.70
44775;DHT22;31340;51.402;0.016;2022-09-17T02:40:30;11.60;71.80
44775;DHT22;31340;51.402;0.016;2022-09-17T02:46:01;11.60;72.30
44775;DHT22;31340;51.402;0.016;2022-09-17T02:59:22;11.30;73.30
44775;DHT22;31340;51.402;0.016;2022-09-17T03:02:09;11.30;72.90
44775;DHT22;31340;51.402;0.016;2022-09-17T03:04:39;11.20;73.30
44775;DHT22;31340;51.402;0.016;2022-09-17T03:07:08;11.20;73.30
44775;DHT22;31340;51.402;0.016;2022-09-17T03:09:36;11.10;73.50
44775;DHT22;31340;51.402;0.016;2022-09-17T03:12:04;11.10;73.60
44775;DHT22;31340;51.402;0.016;2022-09-17T03:14:31;11.10;73.90
44775;DHT22;31340;51.402;0.016;2022-09-17T03:16:59;11.10;74.10
44775;DHT22;31340;51.402;0.016;2022-09-17T03:19:27;11.00;74.10
44775;DHT22;31340;51.402;0.016;2022-09-17T03:21:54;11.00;74.20
44775;DHT22;31340;51.402;0.016;2022-09-17T03:24:22;10.90;74.40
44775;DHT22;31340;51.402;0.016;2022-09-17T03:26:49;10.90;74.70
44775;DHT22;31340;51.402;0.016;2022-09-17T03:29:17;10.90;74.90
44775;DHT22;31340;51.402;0.016;2022-09-17T03:31:44;10.80;74.90
44775;DHT22;31340;51.402;0.016;2022-09-17T03:34:12;10.80;75.20
44775;DHT22;31340;51.402;0.016;2022-09-17T03:36:39;10.80;75.40
44775;DHT22;31340;51.402;0.016;2022-09-17T03:39:07;10.70;75.50
44775;DHT22;31340;51.402;0.016;2022-09-17T03:41:34;10.70;75.70
44775;DHT22;31340;51.402;0.016;2022-09-17T03:44:02;10.70;76.00
44775;DHT22;31340;51.402;0.016;2022-09-17T03:46:29;10.70;76.00
44775;DHT22;31340;51.402;0.016;2022-09-17T03:48:57;10.70;76.10
44775;DHT22;31340;51.402;0.016;2022-09-17T03:51:25;10.60;76.20
44775;DHT22;31340;51.402;0.016;2022-09-17T03:53:52;10.60;76.30
44775;DHT22;31340;51.402;0.016;2022-09-17T03:56:20;10.60;76.50
44775;DHT22;31340;51.402;0.016;2022-09-17T03:58:47;10.50;76.50
44775;DHT22;31340;51.402;0.016;2022-09-17T04:01:14;10.50;76.70
44775;DHT22;31340;51.402;0.016;2022-09-17T04:03:42;10.50;76.80
44775;DHT22;31340;51.402;0.016;2022-09-17T04:06:11;10.40;77.10
44775;DHT22;31340;51.402;0.016;2022-09-17T04:08:39;10.40;77.30
44775;DHT22;31340;51.402;0.016;2022-09-17T04:11:06;10.40;77.30
44775;DHT22;31340;51.402;0.016;2022-09-17T04:13:34;10.40;77.40
44775;DHT22;31340;51.402;0.016;2022-09-17T04:16:02;10.40;77.60
44775;DHT22;31340;51.402;0.016;2022-09-17T04:18:30;10.40;77.70
44775;DHT22;31340;51.402;0.016;2022-09-17T04:20:58;10.30;77.70
44775;DHT22;31340;51.402;0.016;2022-09-17T04:23:25;10.30;77.90
44775;DHT22;31340;51.402;0.016;2022-09-17T04:25:53;10.30;78.20
44775;DHT22;31340;51.402;0.016;2022-09-17T04:28:20;10.30;78.40
44775;DHT22;31340;51.402;0.016;2022-09-17T04:30:48;10.20;78.40
44775;DHT22;31340;51.402;0.016;2022-09-17T04:33:15;10.20;78.70
44775;DHT22;31340;51.402;0.016;2022-09-17T04:35:44;10.20;78.90
44775;DHT22;31340;51.402;0.016;2022-09-17T04:38:11;10.10;79.00
44775;DHT22;31340;51.402;0.016;2022-09-17T04:40:44;10.10;79.00
44775;DHT22;31340;51.402;0.016;2022-09-17T04:43:13;10.10;79.20
44775;DHT22;31340;51.402;0.016;2022-09-17T04:45:40;10.10;79.40
44775;DHT22;31340;51.402;0.016;2022-09-17T04:48:07;10.10;79.60
44775;DHT22;31340;51.402;0.016;2022-09-17T04:50:35;10.00;79.60
44775;DHT22;31340;51.402;0.016;2022-09-17T04:53:02;10.00;79.70
44775;DHT22;31340;51.402;0.016;2022-09-17T04:55:30;10.00;80.00
44775;DHT22;31340;51.402;0.016;2022-09-17T04:57:58;9.90;80.20
44775;DHT22;31340;51.402;0.016;2022-09-17T05:00:25;9.90;80.40
44775;DHT22;31340;51.402;0.016;2022-09-17T05:02:54;9.90;80.60
44775;DHT22;31340;51.402;0.016;2022-09-17T05:05:22;9.80;80.70
44775;DHT22;31340;51.402;0.016;2022-09-17T05:07:50;9.80;80.90
44775;DHT22;31340;51.402;0.016;2022-09-17T05:10:19;9.80;81.10
44775;DHT22;31340;51.402;0.016;2022-09-17T05:12:51;9.80;81.30
44775;DHT22;31340;51.402;0.016;2022-09-17T05:15:19;9.70;81.50
44775;DHT22;31340;51.402;0.016;2022-09-17T05:17:47;9.70;81.60
44775;DHT22;31340;51.402;0.016;2022-09-17T05:20:15;9.70;81.80
44775;DHT22;31340;51.402;0.016;2022-09-17T05:22:44;9.70;81.90
44775;DHT22;31340;51.402;0.016;2022-09-17T05:25:13;9.70;82.10
44775;DHT22;31340;51.402;0.016;2022-09-17T05:27:41;9.60;82.30
44775;DHT22;31340;51.402;0.016;2022-09-17T05:30:09;9.60;82.40
44775;DHT22;31340;51.402;0.016;2022-09-17T05:32:38;9.60;82.60
44775;DHT22;31340;51.402;0.016;2022-09-17T05:35:07;9.60;82.80
44775;DHT22;31340;51.402;0.016;2022-09-17T05:37:35;9.50;83.00
44775;DHT22;31340;51.402;0.016;2022-09-17T05:40:04;9.50;83.10
44775;DHT22;31340;51.402;0.016;2022-09-17T05:42:33;9.50;83.40
44775;DHT22;31340;51.402;0.016;2022-09-17T05:45:00;9.50;83.60
44775;DHT22;31340;51.402;0.016;2022-09-17T05:47:28;9.40;83.80
44775;DHT22;31340;51.402;0.016;2022-09-17T05:49:55;9.40;83.80
44775;DHT22;31340;51.402;0.016;2022-09-17T05:52:26;9.40;84.10
44775;DHT22;31340;51.402;0.016;2022-09-17T05:54:54;9.40;84.20
44775;DHT22;31340;51.402;0.016;2022-09-17T05:57:22;9.40;83.70
44775;DHT22;31340;51.402;0.016;2022-09-17T05:59:50;9.30;84.00
44775;DHT22;31340;51.402;0.016;2022-09-17T06:02:18;9.30;84.40
44775;DHT22;31340;51.402;0.016;2022-09-17T06:04:46;9.30;84.70
44775;DHT22;31340;51.402;0.016;2022-09-17T06:07:13;9.30;84.90
44775;DHT22;31340;51.402;0.016;2022-09-17T06:09:41;9.30;85.00
44775;DHT22;31340;51.402;0.016;2022-09-17T06:12:08;9.30;85.20
44775;DHT22;31340;51.402;0.016;2022-09-17T06:14:36;9.30;85.30
44775;DHT22;31340;51.402;0.016;2022-09-17T06:17:03;9.30;85.50
44775;DHT22;31340;51.402;0.016;2022-09-17T06:19:31;9.40;85.60
44775;DHT22;31340;51.402;0.016;2022-09-17T06:21:58;9.40;85.70
44775;DHT22;31340;51.402;0.016;2022-09-17T06:24:26;9.40;85.70
44775;DHT22;31340;51.402;0.016;2022-09-17T06:26:54;9.40;85.80
44775;DHT22;31340;51.402;0.016;2022-09-17T06:29:21;9.40;86.00
44775;DHT22;31340;51.402;0.016;2022-09-17T06:31:49;9.40;86.00
44775;DHT22;31340;51.402;0.016;2022-09-17T06:34:16;9.50;86.10
44775;DHT22;31340;51.402;0.016;2022-09-17T06:36:44;9.50;86.20
44775;DHT22;31340;51.402;0.016;2022-09-17T06:39:12;9.50;86.20
44775;DHT22;31340;51.402;0.016;2022-09-17T06:41:41;9.50;86.30
44775;DHT22;31340;51.402;0.016;2022-09-17T06:44:09;9.50;86.40
44775;DHT22;31340;51.402;0.016;2022-09-17T06:46:37;9.60;86.50
44775;DHT22;31340;51.402;0.016;2022-09-17T06:49:04;9.60;86.40
44775;DHT22;31340;51.402;0.016;2022-09-17T06:51:32;9.60;86.50
44775;DHT22;31340;51.402;0.016;2022-09-17T06:54:00;9.60;86.50
44775;DHT22;31340;51.402;0.016;2022-09-17T06:56:27;9.60;86.60
44775;DHT22;31340;51.402;0.016;2022-09-17T06:58:55;9.70;86.70
44775;DHT22;31340;51.402;0.016;2022-09-17T07:01:22;9.70;86.60
44775;DHT22;31340;51.402;0.016;2022-09-17T07:03:51;9.80;86.60
44775;DHT22;31340;51.402;0.016;2022-09-17T07:06:18;9.80;86.70
44775;DHT22;31340;51.402;0.016;2022-09-17T07:08:46;9.80;86.70
44775;DHT22;31340;51.402;0.016;2022-09-17T07:11:13;9.80;86.70
44775;DHT22;31340;51.402;0.016;2022-09-17T07:13:42;9.90;86.60
44775;DHT22;31340;51.402;0.016;2022-09-17T07:16:10;9.90;86.60
44775;DHT22;31340;51.402;0.016;2022-09-17T07:18:38;10.00;86.70
44775;DHT22;31340;51.402;0.016;2022-09-17T07:21:06;10.00;86.70
44775;DHT22;31340;51.402;0.016;2022-09-17T07:23:35;10.10;86.70
44775;DHT22;31340;51.402;0.016;2022-09-17T07:26:11;10.20;87.50
44775;DHT22;31340;51.402;0.016;2022-09-17T07:28:40;10.20;86.50
44775;DHT22;31340;51.402;0.016;2022-09-17T07:31:07;10.30;86.50
44775;DHT22;31340;51.402;0.016;2022-09-17T07:33:41;10.30;86.30
44775;DHT22;31340;51.402;0.016;2022-09-17T07:36:11;10.40;86.20
44775;DHT22;31340;51.402;0.016;2022-09-17T07:38:38;10.40;86.10
44775;DHT22;31340;51.402;0.016;2022-09-17T07:41:09;10.50;86.00
44775;DHT22;31340;51.402;0.016;2022-09-17T07:43:39;10.60;85.90
44775;DHT22;31340;51.402;0.016;2022-09-17T07:46:13;10.70;85.80
44775;DHT22;31340;51.402;0.016;2022-09-17T07:48:41;10.70;85.80
44775;DHT22;31340;51.402;0.016;2022-09-17T07:51:18;10.80;85.60
44775;DHT22;31340;51.402;0.016;2022-09-17T07:53:46;10.90;85.40
44775;DHT22;31340;51.402;0.016;2022-09-17T07:56:16;11.00;85.30
44775;DHT22;31340;51.402;0.016;2022-09-17T07:58:44;11.10;85.10
44775;DHT22;31340;51.402;0.016;2022-09-17T08:01:12;11.20;85.00
44775;DHT22;31340;51.402;0.016;2022-09-17T08:03:46;11.30;84.80
44775;DHT22;31340;51.402;0.016;2022-09-17T08:06:17;11.40;84.60
44775;DHT22;31340;51.402;0.016;2022-09-17T08:08:46;11.50;84.20
44775;DHT22;31340;51.402;0.016;2022-09-17T08:11:16;11.60;84.00
44775;DHT22;31340;51.402;0.016;2022-09-17T08:14:04;11.70;83.60
44775;DHT22;31340;51.402;0.016;2022-09-17T08:16:31;11.70;83.20
44775;DHT22;31340;51.402;0.016;2022-09-17T08:18:59;11.90;83.10
44775;DHT22;31340;51.402;0.016;2022-09-17T08:21:27;11.90;82.80
44775;DHT22;31340;51.402;0.016;2022-09-17T08:23:54;12.00;82.60
44775;DHT22;31340;51.402;0.016;2022-09-17T08:26:22;12.20;82.50
44775;DHT22;31340;51.402;0.016;2022-09-17T08:28:52;12.20;81.90
44775;DHT22;31340;51.402;0.016;2022-09-17T08:31:24;12.40;81.60
44775;DHT22;31340;51.402;0.016;2022-09-17T08:33:53;12.40;81.20
44775;DHT22;31340;51.402;0.016;2022-09-17T08:36:20;12.50;81.20
44775;DHT22;31340;51.402;0.016;2022-09-17T08:38:54;12.60;81.00
44775;DHT22;31340;51.402;0.016;2022-09-17T08:41:39;12.80;80.60
44775;DHT22;31340;51.402;0.016;2022-09-17T08:44:20;12.90;79.40
44775;DHT22;31340;51.402;0.016;2022-09-17T08:46:51;13.00;78.30
44775;DHT22;31340;51.402;0.016;2022-09-17T08:55:26;13.40;75.40
44775;DHT22;31340;51.402;0.016;2022-09-17T09:06:28;13.90;72.20
44775;DHT22;31340;51.402;0.016;2022-09-17T09:08:59;14.00;71.90
44775;DHT22;31340;51.402;0.016;2022-09-17T09:11:30;14.10;71.40
44775;DHT22;31340;51.402;0.016;2022-09-17T09:14:12;14.20;71.00
44775;DHT22;31340;51.402;0.016;2022-09-17T09:16:44;14.40;70.10
44775;DHT22;31340;51.402;0.016;2022-09-17T09:19:23;14.50;69.80
44775;DHT22;31340;51.402;0.016;2022-09-17T09:29:54;14.90;66.40
44775;DHT22;31340;51.402;0.016;2022-09-17T09:35:21;15.10;66.10
44775;DHT22;31340;51.402;0.016;2022-09-17T09:38:02;15.20;66.00
44775;DHT22;31340;51.402;0.016;2022-09-17T09:43:24;15.50;65.10
44775;DHT22;31340;51.402;0.016;2022-09-17T09:49:39;15.70;63.90
44775;DHT22;31340;51.402;0.016;2022-09-17T09:52:24;15.80;64.00
44775;DHT22;31340;51.402;0.016;2022-09-17T09:57:45;15.90;64.50
44775;DHT22;31340;51.402;0.016;2022-09-17T10:00:30;16.10;63.80
44775;DHT22;31340;51.402;0.016;2022-09-17T10:03:21;16.20;63.60
44775;DHT22;31340;51.402;0.016;2022-09-17T10:06:08;16.30;63.30
44775;DHT22;31340;51.402;0.016;2022-09-17T10:11:21;16.50;61.90
44775;DHT22;31340;51.402;0.016;2022-09-17T10:13:48;16.50;62.40
44775;DHT22;31340;51.402;0.016;2022-09-17T10:16:20;16.60;62.10
44775;DHT22;31340;51.402;0.016;2022-09-17T10:18:50;16.70;61.30
44775;DHT22;31340;51.402;0.016;2022-09-17T10:24:02;17.00;59.90
44775;DHT22;31340;51.402;0.016;2022-09-17T10:26:33;17.10;60.10
44775;DHT22;31340;51.402;0.016;2022-09-17T10:29:04;17.20;59.20
44775;DHT22;31340;51.402;0.016;2022-09-17T10:31:54;17.30;58.80
44775;DHT22;31340;51.402;0.016;2022-09-17T10:34:24;17.40;58.60
44775;DHT22;31340;51.402;0.016;2022-09-17T10:36:54;17.50;58.60
44775;DHT22;31340;51.402;0.016;2022-09-17T10:42:04;17.80;57.90
44775;DHT22;31340;51.402;0.016;2022-09-17T10:44:34;17.90;57.20
44775;DHT22;31340;51.402;0.016;2022-09-17T10:47:13;18.00;57.00
44775;DHT22;31340;51.402;0.016;2022-09-17T10:49:45;18.00;56.60
44775;DHT22;31340;51.402;0.016;2022-09-17T10:52:24;18.10;56.20
44775;DHT22;31340;51.402;0.016;2022-09-17T11:04:19;18.40;55.20
44775;DHT22;31340;51.402;0.016;2022-09-17T11:09:58;18.60;55.50
44775;DHT22;31340;51.402;0.016;2022-09-17T11:26:28;20.00;53.50
44775;DHT22;31340;51.402;0.016;2022-09-17T11:42:02;21.70;50.20
44775;DHT22;31340;51.402;0.016;2022-09-17T11:44:50;21.90;49.00
44775;DHT22;31340;51.402;0.016;2022-09-17T11:47:36;22.10;48.00
44775;DHT22;31340;51.402;0.016;2022-09-17T11:50:19;22.20;48.30
44775;DHT22;31340;51.402;0.016;2022-09-17T11:55:38;22.60;47.20
44775;DHT22;31340;51.402;0.016;2022-09-17T11:58:36;22.70;46.70
44775;DHT22;31340;51.402;0.016;2022-09-17T12:01:10;22.90;46.50
44775;DHT22;31340;51.402;0.016;2022-09-17T12:03:42;23.10;46.50
44775;DHT22;31340;51.402;0.016;2022-09-17T12:06:18;23.30;45.70
44775;DHT22;31340;51.402;0.016;2022-09-17T12:09:08;23.50;45.80
44775;DHT22;31340;51.402;0.016;2022-09-17T12:12:09;23.70;44.80
44775;DHT22;31340;51.402;0.016;2022-09-17T12:14:38;23.90;44.60
44775;DHT22;31340;51.402;0.016;2022-09-17T12:17:18;24.10;45.00
44775;DHT22;31340;51.402;0.016;2022-09-17T12:19:53;24.30;44.00
44775;DHT22;31340;51.402;0.016;2022-09-17T12:22:28;24.60;43.40
44775;DHT22;31340;51.402;0.016;2022-09-17T12:24:57;24.80;42.70
44775;DHT22;31340;51.402;0.016;2022-09-17T12:27:34;25.00;42.20
44775;DHT22;31340;51.402;0.016;2022-09-17T12:30:12;25.20;41.50
44775;DHT22;31340;51.402;0.016;2022-09-17T12:32:56;25.50;41.60
44775;DHT22;31340;51.402;0.016;2022-09-17T12:52:29;27.00;37.90
44775;DHT22;31340;51.402;0.016;2022-09-17T12:58:14;27.30;36.30
44775;DHT22;31340;51.402;0.016;2022-09-17T13:00:51;27.50;36.00
44775;DHT22;31340;51.402;0.016;2022-09-17T13:12:19;27.60;35.30
44775;DHT22;31340;51.402;0.016;2022-09-17T13:15:08;27.60;34.40
44775;DHT22;31340;51.402;0.016;2022-09-17T13:17:55;27.70;34.90
44775;DHT22;31340;51.402;0.016;2022-09-17T13:20:53;27.80;35.00
44775;DHT22;31340;51.402;0.016;2022-09-17T13:23:33;27.90;36.30
44775;DHT22;31340;51.402;0.016;2022-09-17T13:26:02;28.00;34.40
44775;DHT22;31340;51.402;0.016;2022-09-17T13:28:49;28.20;35.30
44775;DHT22;31340;51.402;0.016;2022-09-17T13:31:20;28.40;34.50
44775;DHT22;31340;51.402;0.016;2022-09-17T13:33:57;28.60;34.50
44775;DHT22;31340;51.402;0.016;2022-09-17T13:36:52;28.80;33.80
44775;DHT22;31340;51.402;0.016;2022-09-17T13:44:46;29.40;32.30
44775;DHT22;31340;51.402;0.016;2022-09-17T13:47:26;29.50;31.90
44775;DHT22;31340;51.402;0.016;2022-09-17T13:50:05;29.60;30.80
44775;DHT22;31340;51.402;0.016;2022-09-17T13:52:45;29.70;30.30
44775;DHT22;31340;51.402;0.016;2022-09-17T13:58:07;29.70;30.80
44775;DHT22;31340;51.402;0.016;2022-09-17T14:13:53;30.10;29.20
44775;DHT22;31340;51.402;0.016;2022-09-17T14:21:30;30.20;29.50
44775;DHT22;31340;51.402;0.016;2022-09-17T14:24:01;30.30;29.30
44775;DHT22;31340;51.402;0.016;2022-09-17T14:29:19;30.40;29.00
44775;DHT22;31340;51.402;0.016;2022-09-17T14:31:49;30.60;29.30
44775;DHT22;31340;51.402;0.016;2022-09-17T14:34:21;30.70;29.30
44775;DHT22;31340;51.402;0.016;2022-09-17T14:36:50;30.80;29.20
44775;DHT22;31340;51.402;0.016;2022-09-17T14:39:35;30.90;28.50
44775;DHT22;31340;51.402;0.016;2022-09-17T14:42:08;30.90;28.30
44775;DHT22;31340;51.402;0.016;2022-09-17T14:44:47;31.00;28.40
44775;DHT22;31340;51.402;0.016;2022-09-17T14:47:17;31.00;28.10
44775;DHT22;31340;51.402;0.016;2022-09-17T14:49:46;31.10;28.20
44775;DHT22;31340;51.402;0.016;2022-09-17T14:52:28;31.10;28.90
44775;DHT22;31340;51.402;0.016;2022-09-17T14:57:46;31.20;27.80
44775;DHT22;31340;51.402;0.016;2022-09-17T15:00:21;31.10;27.90
44775;DHT22;31340;51.402;0.016;2022-09-17T15:02:59;31.10;27.80
44775;DHT22;31340;51.402;0.016;2022-09-17T15:05:33;31.10;27.70
44775;DHT22;31340;51.402;0.016;2022-09-17T15:08:16;31.10;27.70
44775;DHT22;31340;51.402;0.016;2022-09-17T15:13:30;30.80;27.40
44775;DHT22;31340;51.402;0.016;2022-09-17T15:16:04;30.80;27.30
44775;DHT22;31340;51.402;0.016;2022-09-17T15:18:48;30.80;27.70
44775;DHT22;31340;51.402;0.016;2022-09-17T15:26:49;30.30;27.40
44775;DHT22;31340;51.402;0.016;2022-09-17T15:29:24;30.20;27.60
44775;DHT22;31340;51.402;0.016;2022-09-17T15:31:53;30.20;27.50
44775;DHT22;31340;51.402;0.016;2022-09-17T15:34:21;30.20;27.90
44775;DHT22;31340;51.402;0.016;2022-09-17T15:37:03;30.20;27.70
44775;DHT22;31340;51.402;0.016;2022-09-17T15:39:40;30.20;27.40
44775;DHT22;31340;51.402;0.016;2022-09-17T15:42:26;30.20;27.30
44775;DHT22;31340;51.402;0.016;2022-09-17T15:45:27;30.30;27.30
44775;DHT22;31340;51.402;0.016;2022-09-17T15:47:59;30.30;27.20
44775;DHT22;31340;51.402;0.016;2022-09-17T15:50:29;30.20;27.50
44775;DHT22;31340;51.402;0.016;2022-09-17T15:53:10;30.20;27.70
44775;DHT22;31340;51.402;0.016;2022-09-17T15:55:43;30.30;28.40
44775;DHT22;31340;51.402;0.016;2022-09-17T15:58:29;30.20;28.10
44775;DHT22;31340;51.402;0.016;2022-09-17T16:08:52;30.30;27.20
44775;DHT22;31340;51.402;0.016;2022-09-17T16:11:25;30.20;27.10
44775;DHT22;31340;51.402;0.016;2022-09-17T16:13:54;30.10;27.30
44775;DHT22;31340;51.402;0.016;2022-09-17T16:18:51;30.00;27.70
44775;DHT22;31340;51.402;0.016;2022-09-17T16:21:19;30.00;27.40
44775;DHT22;31340;51.402;0.016;2022-09-17T16:23:47;29.90;27.40
44775;DHT22;31340;51.402;0.016;2022-09-17T16:26:19;29.90;27.40
44775;DHT22;31340;51.402;0.016;2022-09-17T16:28:49;29.90;27.30
44775;DHT22;31340;51.402;0.016;2022-09-17T16:31:20;29.80;27.40
44775;DHT22;31340;51.402;0.016;2022-09-17T16:33:48;29.80;27.40
44775;DHT22;31340;51.402;0.016;2022-09-17T16:36:16;29.70;27.40
44775;DHT22;31340;51.402;0.016;2022-09-17T16:38:44;29.60;27.50
44775;DHT22;31340;51.402;0.016;2022-09-17T16:41:11;29.60;27.50
44775;DHT22;31340;51.402;0.016;2022-09-17T16:43:39;29.50;27.40
44775;DHT22;31340;51.402;0.016;2022-09-17T16:46:09;29.30;27.20
44775;DHT22;31340;51.402;0.016;2022-09-17T16:48:37;29.10;27.50
44775;DHT22;31340;51.402;0.016;2022-09-17T16:51:06;29.00;27.80
44775;DHT22;31340;51.402;0.016;2022-09-17T16:53:34;28.70;27.80
44775;DHT22;31340;51.402;0.016;2022-09-17T16:56:09;28.40;27.80
44775;DHT22;31340;51.402;0.016;2022-09-17T16:58:36;28.10;27.90
44775;DHT22;31340;51.402;0.016;2022-09-17T17:01:14;27.80;28.10
44775;DHT22;31340;51.402;0.016;2022-09-17T17:03:42;27.50;28.40
44775;DHT22;31340;51.402;0.016;2022-09-17T17:06:16;27.20;28.60
44775;DHT22;31340;51.402;0.016;2022-09-17T17:08:43;26.80;28.90
44775;DHT22;31340;51.402;0.016;2022-09-17T17:11:11;26.50;29.10
44775;DHT22;31340;51.402;0.016;2022-09-17T17:13:41;26.20;29.40
44775;DHT22;31340;51.402;0.016;2022-09-17T17:16:11;25.80;29.70
44775;DHT22;31340;51.402;0.016;2022-09-17T17:18:41;25.60;30.20
44775;DHT22;31340;51.402;0.016;2022-09-17T17:21:11;25.30;30.60
44775;DHT22;31340;51.402;0.016;2022-09-17T17:23:40;24.90;31.20
44775;DHT22;31340;51.402;0.016;2022-09-17T17:26:10;24.60;31.70
44775;DHT22;31340;51.402;0.016;2022-09-17T17:28:37;24.40;32.10
44775;DHT22;31340;51.402;0.016;2022-09-17T17:31:05;24.20;32.60
44775;DHT22;31340;51.402;0.016;2022-09-17T17:33:33;23.90;33.00
44775;DHT22;31340;51.402;0.016;2022-09-17T17:36:02;23.70;33.60
44775;DHT22;31340;51.402;0.016;2022-09-17T17:38:35;23.40;34.10
44775;DHT22;31340;51.402;0.016;2022-09-17T17:41:15;23.20;34.60
44775;DHT22;31340;51.402;0.016;2022-09-17T17:43:44;23.00;35.40
44775;DHT22;31340;51.402;0.016;2022-09-17T17:46:12;22.80;35.50
44775;DHT22;31340;51.402;0.016;2022-09-17T17:48:39;22.60;35.70
44775;DHT22;31340;51.402;0.016;2022-09-17T17:51:08;22.40;35.90
44775;DHT22;31340;51.402;0.016;2022-09-17T17:53:36;22.20;36.20
44775;DHT22;31340;51.402;0.016;2022-09-17T17:56:07;22.00;36.90
44775;DHT22;31340;51.402;0.016;2022-09-17T17:58:35;21.80;36.90
44775;DHT22;31340;51.402;0.016;2022-09-17T18:01:11;21.50;37.40
44775;DHT22;31340;51.402;0.016;2022-09-17T18:03:38;21.40;37.80
44775;DHT22;31340;51.402;0.016;2022-09-17T18:06:06;21.30;37.90
44775;DHT22;31340;51.402;0.016;2022-09-17T18:08:35;21.10;38.30
44775;DHT22;31340;51.402;0.016;2022-09-17T18:11:06;20.90;38.90
44775;DHT22;31340;51.402;0.016;2022-09-17T18:13:35;20.80;39.40
44775;DHT22;31340;51.402;0.016;2022-09-17T18:16:04;20.70;39.70
44775;DHT22;31340;51.402;0.016;2022-09-17T18:18:35;20.60;40.10
44775;DHT22;31340;51.402;0.016;2022-09-17T18:21:13;20.40;40.40
44775;DHT22;31340;51.402;0.016;2022-09-17T18:23:42;20.30;40.70
44775;DHT22;31340;51.402;0.016;2022-09-17T18:26:12;20.20;41.00
44775;DHT22;31340;51.402;0.016;2022-09-17T18:28:40;20.00;41.60
44775;DHT22;31340;51.402;0.016;2022-09-17T18:31:27;19.90;42.10
44775;DHT22;31340;51.402;0.016;2022-09-17T18:34:00;19.80;43.00
44775;DHT22;31340;51.402;0.016;2022-09-17T18:36:31;19.70;43.00
44775;DHT22;31340;51.402;0.016;2022-09-17T18:39:01;19.50;43.30
44775;DHT22;31340;51.402;0.016;2022-09-17T18:41:49;19.50;43.60
44775;DHT22;31340;51.402;0.016;2022-09-17T18:44:17;19.30;43.70
44775;DHT22;31340;51.402;0.016;2022-09-17T18:46:48;19.20;44.30
44775;DHT22;31340;51.402;0.016;2022-09-17T18:49:17;19.10;44.60
44775;DHT22;31340;51.402;0.016;2022-09-17T18:51:45;19.00;44.90
44775;DHT22;31340;51.402;0.016;2022-09-17T18:54:13;18.90;45.00
44775;DHT22;31340;51.402;0.016;2022-09-17T18:56:40;18.80;45.10
44775;DHT22;31340;51.402;0.016;2022-09-17T18:59:09;18.70;45.20
44775;DHT22;31340;51.402;0.016;2022-09-17T19:01:36;18.60;45.40
44775;DHT22;31340;51.402;0.016;2022-09-17T19:04:04;18.50;45.90
44775;DHT22;31340;51.402;0.016;2022-09-17T19:06:34;18.40;46.30
44775;DHT22;31340;51.402;0.016;2022-09-17T19:09:03;18.30;46.60
44775;DHT22;31340;51.402;0.016;2022-09-17T19:11:33;18.20;46.80
44775;DHT22;31340;51.402;0.016;2022-09-17T19:14:01;18.10;47.10
44775;DHT22;31340;51.402;0.016;2022-09-17T19:16:29;18.00;47.10
44775;DHT22;31340;51.402;0.016;2022-09-17T19:18:57;17.90;47.10
44775;DHT22;31340;51.402;0.016;2022-09-17T19:21:25;17.80;47.40
44775;DHT22;31340;51.402;0.016;2022-09-17T19:23:52;17.70;47.70